Alvordton, Ohio
Current Conditions -  °F | °C
As of 8:35 AM on Thursday 23 Oct 2014 (Local Time) from KUSE Reporting Station
Moderate Fog Moderate Fog  
Wind Chill: -1°   Ceiling: 200
Heat Index: -1°   Visibility: 0.25mi
Dew Point: -1°   Wind: 0mph
Humidity: 100%   Direction: NA
Pressure: 30.25"   Gusts: NA
Location:  41.67°N, 84.44°W
Report Text: KUSE 231235Z AUTO 00000KT 1/4SM FZFG VV002 M01/M01 A3025 RMK AO2
Loading
Personal Weather Stations






























Interactive Weather Map
Tropical Storm Tracking
New forecast layout! Learn more

10-Day Weather Forecast

Advertisements
Track Severe Weather on mobile